sensor_id;sensor_type;location;lat;lon;timestamp;pressure;altitude;pressure_sealevel;temperature;humidity
64668;BME280;51077;42.716;23.344;2022-12-10T00:01:43;94736.22;;;10.53;63.15
64668;BME280;51077;42.716;23.344;2022-12-10T00:04:10;94726.50;;;10.52;63.36
64668;BME280;51077;42.716;23.344;2022-12-10T00:06:37;94734.75;;;10.52;63.14
64668;BME280;51077;42.716;23.344;2022-12-10T00:09:05;94723.75;;;10.52;63.33
64668;BME280;51077;42.716;23.344;2022-12-10T00:11:31;94727.78;;;10.51;63.27
64668;BME280;51077;42.716;23.344;2022-12-10T00:13:57;94745.50;;;10.50;63.11
64668;BME280;51077;42.716;23.344;2022-12-10T00:16:25;94754.47;;;10.51;63.37
64668;BME280;51077;42.716;23.344;2022-12-10T00:18:51;94754.47;;;10.51;63.49
64668;BME280;51077;42.716;23.344;2022-12-10T00:21:20;94742.78;;;10.50;63.45
64668;BME280;51077;42.716;23.344;2022-12-10T00:23:47;94744.03;;;10.49;63.47
64668;BME280;51077;42.716;23.344;2022-12-10T00:26:15;94730.31;;;10.49;63.52
64668;BME280;51077;42.716;23.344;2022-12-10T00:28:42;94731.06;;;10.50;63.59
64668;BME280;51077;42.716;23.344;2022-12-10T00:31:13;94729.06;;;10.50;63.38
64668;BME280;51077;42.716;23.344;2022-12-10T00:33:39;94733.28;;;10.51;63.55
64668;BME280;51077;42.716;23.344;2022-12-10T00:36:08;94731.78;;;10.50;63.36
64668;BME280;51077;42.716;23.344;2022-12-10T00:38:35;94735.28;;;10.51;63.50
64668;BME280;51077;42.716;23.344;2022-12-10T00:41:00;94747.19;;;10.53;63.50
64668;BME280;51077;42.716;23.344;2022-12-10T00:43:26;94747.19;;;10.53;63.54
64668;BME280;51077;42.716;23.344;2022-12-10T00:45:52;94744.69;;;10.55;63.30
64668;BME280;51077;42.716;23.344;2022-12-10T00:48:18;94741.94;;;10.55;63.27
64668;BME280;51077;42.716;23.344;2022-12-10T00:50:44;94711.00;;;10.55;63.57
64668;BME280;51077;42.716;23.344;2022-12-10T00:53:09;94711.00;;;10.55;63.28
64668;BME280;51077;42.716;23.344;2022-12-10T00:55:34;94717.97;;;10.56;63.56
64668;BME280;51077;42.716;23.344;2022-12-10T00:58:00;94735.19;;;10.56;63.68
64668;BME280;51077;42.716;23.344;2022-12-10T01:00:25;94734.44;;;10.56;63.35
64668;BME280;51077;42.716;23.344;2022-12-10T01:02:51;94739.41;;;10.57;63.35
64668;BME280;51077;42.716;23.344;2022-12-10T01:05:16;94744.88;;;10.57;63.32
64668;BME280;51077;42.716;23.344;2022-12-10T01:07:41;94744.88;;;10.57;63.51
64668;BME280;51077;42.716;23.344;2022-12-10T01:10:07;94743.63;;;10.59;63.61
64668;BME280;51077;42.716;23.344;2022-12-10T01:12:33;94736.16;;;10.59;63.35
64668;BME280;51077;42.716;23.344;2022-12-10T01:14:58;94727.38;;;10.61;63.26
64668;BME280;51077;42.716;23.344;2022-12-10T01:17:24;94729.59;;;10.62;63.23
64668;BME280;51077;42.716;23.344;2022-12-10T01:19:49;94733.09;;;10.63;63.28
64668;BME280;51077;42.716;23.344;2022-12-10T01:22:14;94720.84;;;10.64;63.20
64668;BME280;51077;42.716;23.344;2022-12-10T01:24:40;94714.09;;;10.65;63.27
64668;BME280;51077;42.716;23.344;2022-12-10T01:27:05;94715.56;;;10.66;63.10
64668;BME280;51077;42.716;23.344;2022-12-10T01:29:31;94714.81;;;10.65;63.50
64668;BME280;51077;42.716;23.344;2022-12-10T01:31:57;94726.53;;;10.66;63.26
64668;BME280;51077;42.716;23.344;2022-12-10T01:34:23;94732.56;;;10.64;63.58
64668;BME280;51077;42.716;23.344;2022-12-10T01:36:52;94708.59;;;10.65;63.58
64668;BME280;51077;42.716;23.344;2022-12-10T01:39:18;94719.56;;;10.65;63.59
64668;BME280;51077;42.716;23.344;2022-12-10T01:41:51;94714.81;;;10.65;63.56
64668;BME280;51077;42.716;23.344;2022-12-10T01:46:46;94708.59;;;10.65;63.49
64668;BME280;51077;42.716;23.344;2022-12-10T01:49:35;94719.56;;;10.65;63.68
64668;BME280;51077;42.716;23.344;2022-12-10T01:52:02;94721.03;;;10.66;63.73
64668;BME280;51077;42.716;23.344;2022-12-10T01:54:31;94719.81;;;10.67;63.56
64668;BME280;51077;42.716;23.344;2022-12-10T01:57:02;94714.31;;;10.67;63.60
64668;BME280;51077;42.716;23.344;2022-12-10T01:59:29;94712.31;;;10.67;63.70
64668;BME280;51077;42.716;23.344;2022-12-10T02:02:05;94702.81;;;10.68;63.71
64668;BME280;51077;42.716;23.344;2022-12-10T02:12:37;94709.75;;;10.69;63.78
64668;BME280;51077;42.716;23.344;2022-12-10T02:15:27;94716.00;;;10.70;63.70
64668;BME280;51077;42.716;23.344;2022-12-10T02:23:04;94690.56;;;10.69;63.88
64668;BME280;51077;42.716;23.344;2022-12-10T02:25:50;94690.56;;;10.69;64.15
64668;BME280;51077;42.716;23.344;2022-12-10T02:31:35;94689.63;;;10.67;64.15
64668;BME280;51077;42.716;23.344;2022-12-10T02:34:04;94679.38;;;10.67;64.20
64668;BME280;51077;42.716;23.344;2022-12-10T02:36:34;94686.09;;;10.66;64.30
64668;BME280;51077;42.716;23.344;2022-12-10T02:39:02;94689.63;;;10.67;64.18
64668;BME280;51077;42.716;23.344;2022-12-10T02:41:34;94677.38;;;10.68;64.45
64668;BME280;51077;42.716;23.344;2022-12-10T02:44:06;94684.13;;;10.67;64.33
64668;BME280;51077;42.716;23.344;2022-12-10T02:46:34;94673.88;;;10.67;64.46
64668;BME280;51077;42.716;23.344;2022-12-10T02:49:02;94685.59;;;10.68;64.50
64668;BME280;51077;42.716;23.344;2022-12-10T02:51:28;94673.88;;;10.67;64.39
64668;BME280;51077;42.716;23.344;2022-12-10T02:54:02;94672.63;;;10.68;64.31
64668;BME280;51077;42.716;23.344;2022-12-10T02:56:42;94674.63;;;10.68;64.60
64668;BME280;51077;42.716;23.344;2022-12-10T02:59:14;94671.88;;;10.68;64.60
64668;BME280;51077;42.716;23.344;2022-12-10T03:07:07;94677.88;;;10.66;64.61
64668;BME280;51077;42.716;23.344;2022-12-10T03:09:39;94678.63;;;10.67;64.84
64668;BME280;51077;42.716;23.344;2022-12-10T03:12:16;94673.88;;;10.67;64.66
64668;BME280;51077;42.716;23.344;2022-12-10T03:14:44;94670.59;;;10.69;64.51
64668;BME280;51077;42.716;23.344;2022-12-10T03:17:11;94667.84;;;10.69;64.66
64668;BME280;51077;42.716;23.344;2022-12-10T03:19:44;94678.31;;;10.70;64.64
64668;BME280;51077;42.716;23.344;2022-12-10T03:22:12;94672.81;;;10.70;64.72
64668;BME280;51077;42.716;23.344;2022-12-10T03:24:39;94674.31;;;10.71;64.64
64668;BME280;51077;42.716;23.344;2022-12-10T03:27:09;94677.78;;;10.72;64.77
64668;BME280;51077;42.716;23.344;2022-12-10T03:29:47;94672.31;;;10.72;64.54
64668;BME280;51077;42.716;23.344;2022-12-10T03:32:14;94674.31;;;10.71;64.75
64668;BME280;51077;42.716;23.344;2022-12-10T03:34:41;94658.56;;;10.72;64.70
64668;BME280;51077;42.716;23.344;2022-12-10T03:37:07;94666.81;;;10.72;64.61
64668;BME280;51077;42.716;23.344;2022-12-10T03:39:33;94664.06;;;10.72;64.75
64668;BME280;51077;42.716;23.344;2022-12-10T03:41:59;94658.34;;;10.70;64.83
64668;BME280;51077;42.716;23.344;2022-12-10T03:44:33;94662.56;;;10.71;64.88
64668;BME280;51077;42.716;23.344;2022-12-10T03:46:59;94665.31;;;10.71;64.87
64668;BME280;51077;42.716;23.344;2022-12-10T03:49:25;94667.56;;;10.72;65.25
64668;BME280;51077;42.716;23.344;2022-12-10T03:51:51;94655.84;;;10.72;65.36
64668;BME280;51077;42.716;23.344;2022-12-10T03:54:16;94657.06;;;10.71;65.50
64668;BME280;51077;42.716;23.344;2022-12-10T03:56:41;94644.63;;;10.70;65.46
64668;BME280;51077;42.716;23.344;2022-12-10T03:59:07;94648.13;;;10.70;65.56
64668;BME280;51077;42.716;23.344;2022-12-10T04:01:33;94639.13;;;10.70;65.51
64668;BME280;51077;42.716;23.344;2022-12-10T04:03:58;94654.13;;;10.69;65.54
64668;BME280;51077;42.716;23.344;2022-12-10T04:06:24;94651.41;;;10.69;65.73
64668;BME280;51077;42.716;23.344;2022-12-10T04:08:52;94661.63;;;10.68;66.04
64668;BME280;51077;42.716;23.344;2022-12-10T04:11:17;94659.63;;;10.69;66.06
64668;BME280;51077;42.716;23.344;2022-12-10T04:13:43;94643.91;;;10.69;66.09
64668;BME280;51077;42.716;23.344;2022-12-10T04:16:35;94648.66;;;10.69;66.13
64668;BME280;51077;42.716;23.344;2022-12-10T04:19:05;94656.16;;;10.68;66.15
64668;BME280;51077;42.716;23.344;2022-12-10T04:21:32;94659.63;;;10.69;66.25
64668;BME280;51077;42.716;23.344;2022-12-10T04:24:18;94662.38;;;10.69;66.61
64668;BME280;51077;42.716;23.344;2022-12-10T04:27:06;94667.13;;;10.68;66.50
64668;BME280;51077;42.716;23.344;2022-12-10T04:29:33;94671.34;;;10.69;66.63
64668;BME280;51077;42.716;23.344;2022-12-10T04:31:59;94669.34;;;10.70;66.74
64668;BME280;51077;42.716;23.344;2022-12-10T04:34:25;94660.34;;;10.69;66.91
64668;BME280;51077;42.716;23.344;2022-12-10T04:36:50;94661.84;;;10.70;66.84
64668;BME280;51077;42.716;23.344;2022-12-10T04:39:17;94657.06;;;10.71;66.81
64668;BME280;51077;42.716;23.344;2022-12-10T04:41:45;94654.34;;;10.71;66.94
64668;BME280;51077;42.716;23.344;2022-12-10T04:44:11;94657.06;;;10.71;66.76
64668;BME280;51077;42.716;23.344;2022-12-10T04:46:37;94657.84;;;10.71;66.84
64668;BME280;51077;42.716;23.344;2022-12-10T04:49:04;94649.06;;;10.73;66.88
64668;BME280;51077;42.716;23.344;2022-12-10T04:51:30;94651.81;;;10.73;66.98
64668;BME280;51077;42.716;23.344;2022-12-10T04:53:55;94660.78;;;10.73;67.12
64668;BME280;51077;42.716;23.344;2022-12-10T04:56:20;94660.78;;;10.73;67.04
64668;BME280;51077;42.716;23.344;2022-12-10T04:58:46;94648.53;;;10.74;67.28
64668;BME280;51077;42.716;23.344;2022-12-10T05:01:12;94663.00;;;10.75;67.21
64668;BME280;51077;42.716;23.344;2022-12-10T05:03:38;94673.97;;;10.75;67.26
64668;BME280;51077;42.716;23.344;2022-12-10T05:06:06;94664.25;;;10.74;67.31
64668;BME280;51077;42.716;23.344;2022-12-10T05:08:33;94665.00;;;10.74;67.26
64668;BME280;51077;42.716;23.344;2022-12-10T05:11:06;94667.00;;;10.74;67.37
64668;BME280;51077;42.716;23.344;2022-12-10T05:13:32;94669.75;;;10.74;67.62
64668;BME280;51077;42.716;23.344;2022-12-10T05:16:01;94663.00;;;10.75;67.79
64668;BME280;51077;42.716;23.344;2022-12-10T05:18:26;94672.50;;;10.74;67.54
64668;BME280;51077;42.716;23.344;2022-12-10T05:20:52;94659.50;;;10.74;67.81
64668;BME280;51077;42.716;23.344;2022-12-10T05:23:17;94652.00;;;10.75;67.49
64668;BME280;51077;42.716;23.344;2022-12-10T05:28:55;94652.56;;;10.73;68.07
64668;BME280;51077;42.716;23.344;2022-12-10T05:31:26;94642.84;;;10.72;68.37
64668;BME280;51077;42.716;23.344;2022-12-10T05:33:53;94641.38;;;10.71;68.76
64668;BME280;51077;42.716;23.344;2022-12-10T05:36:20;94645.59;;;10.72;68.62
64668;BME280;51077;42.716;23.344;2022-12-10T05:38:47;94637.88;;;10.71;68.69
64668;BME280;51077;42.716;23.344;2022-12-10T05:41:15;94642.13;;;10.72;68.64
64668;BME280;51077;42.716;23.344;2022-12-10T05:43:42;94653.09;;;10.72;68.72
64668;BME280;51077;42.716;23.344;2022-12-10T05:46:12;94653.81;;;10.72;68.58
64668;BME280;51077;42.716;23.344;2022-12-10T05:48:38;94649.06;;;10.73;68.85
64668;BME280;51077;42.716;23.344;2022-12-10T05:51:10;94669.03;;;10.73;69.34
64668;BME280;51077;42.716;23.344;2022-12-10T05:53:36;94668.72;;;10.77;73.19
64668;BME280;51077;42.716;23.344;2022-12-10T05:56:08;94661.31;;;10.85;74.73
64668;BME280;51077;42.716;23.344;2022-12-10T05:58:34;94675.66;;;10.91;74.62
64668;BME280;51077;42.716;23.344;2022-12-10T06:01:05;94661.44;;;10.93;73.97
64668;BME280;51077;42.716;23.344;2022-12-10T06:03:31;94673.16;;;10.93;73.66
64668;BME280;51077;42.716;23.344;2022-12-10T06:05:56;94668.41;;;10.94;73.32
64668;BME280;51077;42.716;23.344;2022-12-10T06:08:22;94667.66;;;10.93;73.03
64668;BME280;51077;42.716;23.344;2022-12-10T06:10:57;94666.16;;;10.92;73.04
64668;BME280;51077;42.716;23.344;2022-12-10T06:13:26;94668.41;;;10.94;72.86
64668;BME280;51077;42.716;23.344;2022-12-10T06:16:18;94679.88;;;10.92;72.58
64668;BME280;51077;42.716;23.344;2022-12-10T06:19:06;94680.84;;;10.95;72.58
64668;BME280;51077;42.716;23.344;2022-12-10T06:21:41;94673.16;;;10.93;72.44
64668;BME280;51077;42.716;23.344;2022-12-10T06:24:28;94669.13;;;10.94;72.40
64668;BME280;51077;42.716;23.344;2022-12-10T06:27:17;94675.38;;;10.95;72.24
64668;BME280;51077;42.716;23.344;2022-12-10T06:30:00;94666.59;;;10.96;72.32
64668;BME280;51077;42.716;23.344;2022-12-10T06:32:45;94652.84;;;10.96;72.05
64668;BME280;51077;42.716;23.344;2022-12-10T06:35:14;94647.38;;;10.96;72.21
64668;BME280;51077;42.716;23.344;2022-12-10T06:37:39;94653.81;;;10.99;71.90
64668;BME280;51077;42.716;23.344;2022-12-10T06:40:05;94651.81;;;10.99;71.80
64668;BME280;51077;42.716;23.344;2022-12-10T06:42:31;94654.78;;;11.01;71.69
64668;BME280;51077;42.716;23.344;2022-12-10T06:44:56;94652.03;;;11.01;71.72
64668;BME280;51077;42.716;23.344;2022-12-10T06:47:22;94650.75;;;11.02;71.73
64668;BME280;51077;42.716;23.344;2022-12-10T06:49:48;94654.44;;;11.05;71.32
64668;BME280;51077;42.716;23.344;2022-12-10T06:52:14;94657.91;;;11.05;71.51
64668;BME280;51077;42.716;23.344;2022-12-10T06:54:39;94659.41;;;11.06;71.39
64668;BME280;51077;42.716;23.344;2022-12-10T06:57:05;94674.06;;;11.09;71.17
64668;BME280;51077;42.716;23.344;2022-12-10T06:59:30;94681.81;;;11.11;71.10
64668;BME280;51077;42.716;23.344;2022-12-10T07:01:56;94688.78;;;11.12;71.15
64668;BME280;51077;42.716;23.344;2022-12-10T07:04:21;94693.22;;;11.15;71.10
64668;BME280;51077;42.716;23.344;2022-12-10T07:06:47;94685.16;;;11.17;70.95
64668;BME280;51077;42.716;23.344;2022-12-10T07:09:12;94686.63;;;11.18;70.88
64668;BME280;51077;42.716;23.344;2022-12-10T07:11:38;94689.63;;;11.20;71.06
64668;BME280;51077;42.716;23.344;2022-12-10T07:14:03;94684.31;;;11.22;70.82
64668;BME280;51077;42.716;23.344;2022-12-10T07:16:31;94680.09;;;11.21;70.70
64668;BME280;51077;42.716;23.344;2022-12-10T07:19:09;94681.06;;;11.23;70.67
64668;BME280;51077;42.716;23.344;2022-12-10T07:21:43;94672.81;;;11.23;70.54
64668;BME280;51077;42.716;23.344;2022-12-10T07:24:27;94663.50;;;11.26;70.68
64668;BME280;51077;42.716;23.344;2022-12-10T07:27:08;94645.72;;;11.27;70.51
64668;BME280;51077;42.716;23.344;2022-12-10T07:29:34;94641.41;;;11.32;70.32
64668;BME280;51077;42.716;23.344;2022-12-10T07:32:07;94651.31;;;11.35;70.43
64668;BME280;51077;42.716;23.344;2022-12-10T07:34:33;94662.72;;;11.39;70.24
64668;BME280;51077;42.716;23.344;2022-12-10T07:36:58;94644.47;;;11.42;70.23
64668;BME280;51077;42.716;23.344;2022-12-10T07:39:24;94643.91;;;11.43;70.20
64668;BME280;51077;42.716;23.344;2022-12-10T07:41:51;94643.59;;;11.47;69.87
64668;BME280;51077;42.716;23.344;2022-12-10T07:44:24;94642.53;;;11.50;69.80
64668;BME280;51077;42.716;23.344;2022-12-10T07:46:52;94644.94;;;11.53;69.58
64668;BME280;51077;42.716;23.344;2022-12-10T07:49:18;94639.84;;;11.57;69.63
64668;BME280;51077;42.716;23.344;2022-12-10T07:51:45;94649.25;;;11.62;69.67
64668;BME280;51077;42.716;23.344;2022-12-10T07:54:11;94653.16;;;11.67;69.53
64668;BME280;51077;42.716;23.344;2022-12-10T07:56:36;94649.53;;;11.72;69.40
64668;BME280;51077;42.716;23.344;2022-12-10T07:59:02;94639.16;;;11.78;69.32
64668;BME280;51077;42.716;23.344;2022-12-10T08:01:27;94640.31;;;11.82;69.08
64668;BME280;51077;42.716;23.344;2022-12-10T08:03:55;94627.72;;;11.87;69.23
64668;BME280;51077;42.716;23.344;2022-12-10T08:06:24;94632.34;;;11.92;68.80
64668;BME280;51077;42.716;23.344;2022-12-10T08:08:50;94612.75;;;11.96;68.91
64668;BME280;51077;42.716;23.344;2022-12-10T08:11:17;94626.19;;;11.99;68.85
64668;BME280;51077;42.716;23.344;2022-12-10T08:13:43;94624.38;;;12.02;68.77
64668;BME280;51077;42.716;23.344;2022-12-10T08:16:18;94626.25;;;12.07;68.42
64668;BME280;51077;42.716;23.344;2022-12-10T08:18:44;94624.44;;;12.10;68.48
64668;BME280;51077;42.716;23.344;2022-12-10T08:21:16;94633.09;;;12.14;68.45
64668;BME280;51077;42.716;23.344;2022-12-10T08:23:42;94637.50;;;12.17;68.11
64668;BME280;51077;42.716;23.344;2022-12-10T08:26:15;94626.91;;;12.21;68.01
64668;BME280;51077;42.716;23.344;2022-12-10T08:28:41;94614.84;;;12.24;68.03
64668;BME280;51077;42.716;23.344;2022-12-10T08:31:08;94623.81;;;12.24;68.01
64668;BME280;51077;42.716;23.344;2022-12-10T08:33:35;94628.22;;;12.27;67.96
64668;BME280;51077;42.716;23.344;2022-12-10T08:36:02;94625.16;;;12.31;67.89
64668;BME280;51077;42.716;23.344;2022-12-10T08:38:28;94615.09;;;12.33;67.97
64668;BME280;51077;42.716;23.344;2022-12-10T08:40:54;94624.47;;;12.38;67.84
64668;BME280;51077;42.716;23.344;2022-12-10T08:43:19;94609.84;;;12.43;68.58
64668;BME280;51077;42.716;23.344;2022-12-10T08:45:45;94600.16;;;12.50;68.42
64668;BME280;51077;42.716;23.344;2022-12-10T08:48:10;94600.00;;;12.55;68.10
64668;BME280;51077;42.716;23.344;2022-12-10T08:50:37;94602.25;;;12.65;67.76
64668;BME280;51077;42.716;23.344;2022-12-10T08:53:03;94595.03;;;12.82;67.75
64668;BME280;51077;42.716;23.344;2022-12-10T08:55:28;94591.75;;;12.92;67.41
64668;BME280;51077;42.716;23.344;2022-12-10T08:57:53;94594.03;;;13.08;66.95
64668;BME280;51077;42.716;23.344;2022-12-10T09:00:19;94592.72;;;13.38;66.54
64668;BME280;51077;42.716;23.344;2022-12-10T09:02:45;94583.19;;;13.62;65.88
64668;BME280;51077;42.716;23.344;2022-12-10T09:05:11;94585.84;;;13.98;65.13
64668;BME280;51077;42.716;23.344;2022-12-10T09:07:37;94574.22;;;14.38;63.94
64668;BME280;51077;42.716;23.344;2022-12-10T09:10:03;94573.63;;;14.78;63.10
64668;BME280;51077;42.716;23.344;2022-12-10T09:12:28;94581.22;;;15.25;62.07
64668;BME280;51077;42.716;23.344;2022-12-10T09:14:54;94582.41;;;15.80;60.83
64668;BME280;51077;42.716;23.344;2022-12-10T09:17:19;94578.09;;;16.37;59.49
64668;BME280;51077;42.716;23.344;2022-12-10T09:19:45;94568.41;;;16.88;58.36
64668;BME280;51077;42.716;23.344;2022-12-10T09:22:10;94574.31;;;17.36;57.08
64668;BME280;51077;42.716;23.344;2022-12-10T09:24:35;94575.78;;;17.81;56.13
64668;BME280;51077;42.716;23.344;2022-12-10T09:27:02;94568.47;;;18.23;55.41
64668;BME280;51077;42.716;23.344;2022-12-10T09:29:28;94569.59;;;18.66;54.61
64668;BME280;51077;42.716;23.344;2022-12-10T09:31:53;94553.13;;;18.97;53.74
64668;BME280;51077;42.716;23.344;2022-12-10T09:34:19;94559.84;;;19.14;53.37
64668;BME280;51077;42.716;23.344;2022-12-10T09:36:44;94559.41;;;19.27;52.87
64668;BME280;51077;42.716;23.344;2022-12-10T09:39:10;94546.19;;;19.37;52.64
64668;BME280;51077;42.716;23.344;2022-12-10T09:47:02;94538.50;;;20.17;51.28
64668;BME280;51077;42.716;23.344;2022-12-10T09:52:33;94508.69;;;20.94;49.27
64668;BME280;51077;42.716;23.344;2022-12-10T09:55:04;94507.78;;;21.34;48.78
64668;BME280;51077;42.716;23.344;2022-12-10T09:57:38;94518.22;;;21.45;48.55
64668;BME280;51077;42.716;23.344;2022-12-10T10:00:32;94508.59;;;21.81;47.37
64668;BME280;51077;42.716;23.344;2022-12-10T10:03:00;94507.28;;;22.18;47.10
64668;BME280;51077;42.716;23.344;2022-12-10T10:05:31;94500.81;;;22.39;46.30
64668;BME280;51077;42.716;23.344;2022-12-10T10:08:00;94501.16;;;22.56;46.28
64668;BME280;51077;42.716;23.344;2022-12-10T10:12:58;94505.78;;;23.26;44.75
64668;BME280;51077;42.716;23.344;2022-12-10T10:15:30;94511.03;;;23.46;44.37
64668;BME280;51077;42.716;23.344;2022-12-10T10:17:58;94510.97;;;23.57;44.07
64668;BME280;51077;42.716;23.344;2022-12-10T10:20:27;94503.31;;;23.58;44.06
64668;BME280;51077;42.716;23.344;2022-12-10T10:22:56;94492.78;;;23.45;44.39
64668;BME280;51077;42.716;23.344;2022-12-10T10:25:23;94498.34;;;23.31;44.71
64668;BME280;51077;42.716;23.344;2022-12-10T10:27:48;94497.44;;;23.15;45.10
64668;BME280;51077;42.716;23.344;2022-12-10T10:30:17;94485.25;;;22.96;45.12
64668;BME280;51077;42.716;23.344;2022-12-10T10:32:49;94474.34;;;22.77;45.50
64668;BME280;51077;42.716;23.344;2022-12-10T10:37:58;94448.56;;;22.29;46.28
64668;BME280;51077;42.716;23.344;2022-12-10T10:40:27;94451.84;;;22.02;46.90
64668;BME280;51077;42.716;23.344;2022-12-10T10:42:55;94438.00;;;21.81;46.94
64668;BME280;51077;42.716;23.344;2022-12-10T10:45:33;94444.56;;;21.62;47.51
64668;BME280;51077;42.716;23.344;2022-12-10T10:48:12;94446.72;;;21.40;48.20
64668;BME280;51077;42.716;23.344;2022-12-10T10:50:42;94451.00;;;21.20;48.34
64668;BME280;51077;42.716;23.344;2022-12-10T10:55:59;94458.56;;;20.84;49.41
64668;BME280;51077;42.716;23.344;2022-12-10T10:58:26;94454.13;;;20.69;49.69
64668;BME280;51077;42.716;23.344;2022-12-10T11:01:06;94447.06;;;20.56;49.70
64668;BME280;51077;42.716;23.344;2022-12-10T11:03:35;94436.69;;;20.47;50.02
64668;BME280;51077;42.716;23.344;2022-12-10T11:06:05;94436.75;;;20.38;50.08
64668;BME280;51077;42.716;23.344;2022-12-10T11:08:34;94427.59;;;20.25;50.51
64668;BME280;51077;42.716;23.344;2022-12-10T11:11:05;94428.59;;;20.08;50.84
64668;BME280;51077;42.716;23.344;2022-12-10T11:13:33;94424.88;;;19.94;51.15
64668;BME280;51077;42.716;23.344;2022-12-10T11:16:11;94409.53;;;19.83;51.42
64668;BME280;51077;42.716;23.344;2022-12-10T11:18:39;94403.56;;;19.77;51.67
64668;BME280;51077;42.716;23.344;2022-12-10T11:23:41;94388.81;;;19.65;51.95
64668;BME280;51077;42.716;23.344;2022-12-10T11:29:04;94371.41;;;19.55;52.14
64668;BME280;51077;42.716;23.344;2022-12-10T11:37:38;94366.69;;;19.57;52.74
64668;BME280;51077;42.716;23.344;2022-12-10T11:52:09;94376.88;;;19.12;53.60
64668;BME280;51077;42.716;23.344;2022-12-10T12:00:23;94358.94;;;18.94;54.08
64668;BME280;51077;42.716;23.344;2022-12-10T12:08:41;94351.03;;;18.80;54.24
64668;BME280;51077;42.716;23.344;2022-12-10T12:11:37;94344.34;;;18.74;54.23
64668;BME280;51077;42.716;23.344;2022-12-10T12:19:37;94316.00;;;18.46;54.89
64668;BME280;51077;42.716;23.344;2022-12-10T12:22:14;94327.69;;;18.35;55.17
64668;BME280;51077;42.716;23.344;2022-12-10T12:24:41;94311.63;;;18.24;55.33
64668;BME280;51077;42.716;23.344;2022-12-10T12:30:05;94316.00;;;17.98;56.10
64668;BME280;51077;42.716;23.344;2022-12-10T12:32:50;94295.25;;;17.89;56.07
64668;BME280;51077;42.716;23.344;2022-12-10T12:35:28;94300.69;;;17.77;56.16
64668;BME280;51077;42.716;23.344;2022-12-10T12:38:00;94302.13;;;17.69;56.74
64668;BME280;51077;42.716;23.344;2022-12-10T12:40:34;94292.47;;;17.60;56.80
64668;BME280;51077;42.716;23.344;2022-12-10T12:43:12;94280.59;;;17.50;56.96
64668;BME280;51077;42.716;23.344;2022-12-10T12:45:49;94273.00;;;17.41;57.12
64668;BME280;51077;42.716;23.344;2022-12-10T12:51:12;94276.63;;;17.24;57.65
64668;BME280;51077;42.716;23.344;2022-12-10T12:53:41;94277.31;;;17.15;57.88
64668;BME280;51077;42.716;23.344;2022-12-10T13:03:57;94274.91;;;16.82;58.43
64668;BME280;51077;42.716;23.344;2022-12-10T13:06:32;94262.78;;;16.77;58.47
64668;BME280;51077;42.716;23.344;2022-12-10T13:11:40;94252.78;;;16.65;58.94
64668;BME280;51077;42.716;23.344;2022-12-10T13:16:46;94262.19;;;16.52;59.29
64668;BME280;51077;42.716;23.344;2022-12-10T13:24:19;94250.44;;;16.34;59.71
64668;BME280;51077;42.716;23.344;2022-12-10T13:42:35;94207.25;;;15.94;60.68
64668;BME280;51077;42.716;23.344;2022-12-10T13:48:22;94195.22;;;15.82;60.90
64668;BME280;51077;42.716;23.344;2022-12-10T13:53:49;94184.09;;;15.72;60.95
64668;BME280;51077;42.716;23.344;2022-12-10T13:56:29;94192.94;;;15.71;61.37
64668;BME280;51077;42.716;23.344;2022-12-10T14:01:46;94209.09;;;15.65;61.54
64668;BME280;51077;42.716;23.344;2022-12-10T14:07:13;94201.97;;;15.54;61.68
64668;BME280;51077;42.716;23.344;2022-12-10T14:10:01;94198.16;;;15.49;61.58
64668;BME280;51077;42.716;23.344;2022-12-10T14:12:33;94181.81;;;15.44;61.76
64668;BME280;51077;42.716;23.344;2022-12-10T14:15:03;94187.75;;;15.40;61.71
64668;BME280;51077;42.716;23.344;2022-12-10T14:17:38;94187.44;;;15.36;61.70
64668;BME280;51077;42.716;23.344;2022-12-10T14:20:06;94182.88;;;15.31;61.75
64668;BME280;51077;42.716;23.344;2022-12-10T14:22:46;94185.31;;;15.27;61.88
64668;BME280;51077;42.716;23.344;2022-12-10T14:25:18;94178.19;;;15.24;61.95
64668;BME280;51077;42.716;23.344;2022-12-10T14:27:50;94161.44;;;15.22;61.94
64668;BME280;51077;42.716;23.344;2022-12-10T14:30:25;94175.50;;;15.16;62.13
64668;BME280;51077;42.716;23.344;2022-12-10T14:32:54;94178.81;;;15.15;61.99
64668;BME280;51077;42.716;23.344;2022-12-10T14:35:22;94182.00;;;15.11;62.17
64668;BME280;51077;42.716;23.344;2022-12-10T14:37:49;94174.09;;;15.07;62.16
64668;BME280;51077;42.716;23.344;2022-12-10T14:40:23;94164.19;;;15.04;62.24
64668;BME280;51077;42.716;23.344;2022-12-10T14:42:50;94170.84;;;15.01;62.24
64668;BME280;51077;42.716;23.344;2022-12-10T14:45:18;94158.19;;;14.98;62.29
64668;BME280;51077;42.716;23.344;2022-12-10T14:47:43;94148.25;;;14.95;62.51
64668;BME280;51077;42.716;23.344;2022-12-10T14:50:13;94148.66;;;14.92;62.40
64668;BME280;51077;42.716;23.344;2022-12-10T14:52:45;94148.31;;;14.88;62.50
64668;BME280;51077;42.716;23.344;2022-12-10T14:55:18;94152.97;;;14.85;62.46
64668;BME280;51077;42.716;23.344;2022-12-10T14:57:49;94141.59;;;14.81;62.59
64668;BME280;51077;42.716;23.344;2022-12-10T15:00:19;94143.28;;;14.76;62.62
64668;BME280;51077;42.716;23.344;2022-12-10T15:02:58;94151.41;;;14.74;62.82
64668;BME280;51077;42.716;23.344;2022-12-10T15:05:32;94149.03;;;14.71;62.87
64668;BME280;51077;42.716;23.344;2022-12-10T15:08:14;94148.16;;;14.68;62.89
64668;BME280;51077;42.716;23.344;2022-12-10T15:10:46;94143.75;;;14.65;62.80
64668;BME280;51077;42.716;23.344;2022-12-10T15:13:22;94153.88;;;14.63;62.75
64668;BME280;51077;42.716;23.344;2022-12-10T15:15:50;94147.47;;;14.60;62.89
64668;BME280;51077;42.716;23.344;2022-12-10T15:18:18;94159.66;;;14.57;62.90